Time;durP1;ratioP1;P1;durP2;ratioP2;P2;SDS_P1;SDS_P2;PMS_P1;PMS_P2;Temp;Humidity;BMP_temperature;BMP_pressure;BME280_temperature;BME280_humidity;BME280_pressure;Samples;Min_cycle;Max_cycle;Signal;HPM_P1;HPM_P2
2023/04/18 00:01:25;;;;;;;15.27;10.32;;;;;;;;;;5056733;28;20450;-79
2023/04/18 00:03:51;;;;;;;15.60;9.88;;;;;;;;;;5073945;28;20078;-79
2023/04/18 00:06:18;;;;;;;16.50;10.57;;;;;;;;;;5074098;28;20394;-78
2023/04/18 00:08:44;;;;;;;18.75;10.48;;;;;;;;;;5074212;28;20044;-79
2023/04/18 00:11:10;;;;;;;18.23;9.23;;;;;;;;;;5073846;28;20098;-79
2023/04/18 00:13:38;;;;;;;17.40;10.05;;;;;;;;;;5074123;28;20044;-79
2023/04/18 00:16:04;;;;;;;16.60;9.55;;;;;;;;;;5072736;28;20090;-79
2023/04/18 00:18:30;;;;;;;13.68;9.70;;;;;;;;;;5073694;28;20063;-79
2023/04/18 00:20:56;;;;;;;17.23;10.65;;;;;;;;;;5072278;28;20047;-79
2023/04/18 00:23:22;;;;;;;15.88;9.88;;;;;;;;;;5072863;28;20040;-79
2023/04/18 00:25:49;;;;;;;13.75;9.20;;;;;;;;;;5072572;28;20489;-79
2023/04/18 00:28:15;;;;;;;19.30;10.77;;;;;;;;;;5056168;28;20048;-79
2023/04/18 00:30:41;;;;;;;33.55;10.48;;;;;;;;;;5073649;28;20123;-78
2023/04/18 00:33:07;;;;;;;15.70;10.45;;;;;;;;;;5058857;28;20045;-79
2023/04/18 00:35:33;;;;;;;19.42;10.30;;;;;;;;;;5052404;28;20052;-79
2023/04/18 00:37:59;;;;;;;16.80;10.75;;;;;;;;;;5052370;28;20493;-79
2023/04/18 00:40:26;;;;;;;15.35;9.90;;;;;;;;;;5032330;28;20509;-78
2023/04/18 00:42:52;;;;;;;17.35;10.27;;;;;;;;;;5050445;28;20037;-78
2023/04/18 00:45:18;;;;;;;17.90;11.50;;;;;;;;;;5053592;28;20041;-79
2023/04/18 00:47:44;;;;;;;17.73;10.55;;;;;;;;;;5053257;28;20386;-78
2023/04/18 00:50:10;;;;;;;14.50;9.85;;;;;;;;;;5051883;28;20065;-78
2023/04/18 00:52:36;;;;;;;18.35;10.82;;;;;;;;;;5053475;28;20045;-79
2023/04/18 00:55:03;;;;;;;19.05;10.98;;;;;;;;;;5052021;28;20045;-79
2023/04/18 00:57:29;;;;;;;17.77;10.95;;;;;;;;;;5052185;28;20045;-79
2023/04/18 00:59:56;;;;;;;17.40;11.20;;;;;;;;;;5051425;28;20064;-79
2023/04/18 01:02:22;;;;;;;17.90;11.57;;;;;;;;;;5062272;28;20512;-79
2023/04/18 01:04:48;;;;;;;18.60;10.85;;;;;;;;;;5036793;28;20036;-79
2023/04/18 01:07:14;;;;;;;17.35;10.70;;;;;;;;;;5053000;28;20378;-78
2023/04/18 01:09:40;;;;;;;18.50;11.07;;;;;;;;;;5053096;28;20044;-79
2023/04/18 01:12:06;;;;;;;19.52;10.95;;;;;;;;;;5035075;28;20037;-78
2023/04/18 01:14:32;;;;;;;17.63;10.65;;;;;;;;;;5052958;28;20446;-78
2023/04/18 01:16:58;;;;;;;16.35;10.65;;;;;;;;;;5051162;28;20124;-78
2023/04/18 01:19:24;;;;;;;18.70;11.20;;;;;;;;;;5051289;28;20057;-78
2023/04/18 01:21:52;;;;;;;15.40;10.20;;;;;;;;;;5034853;28;20048;-79
2023/04/18 01:24:18;;;;;;;17.33;10.52;;;;;;;;;;5051131;28;20094;-79
2023/04/18 01:26:46;;;;;;;17.27;10.93;;;;;;;;;;5051374;28;20128;-79
2023/04/18 01:29:12;;;;;;;18.75;11.98;;;;;;;;;;5051402;28;20436;-79
2023/04/18 01:31:39;;;;;;;19.95;11.43;;;;;;;;;;5051409;28;20045;-78
2023/04/18 01:34:06;;;;;;;20.35;11.23;;;;;;;;;;5050860;28;20037;-79
2023/04/18 01:36:32;;;;;;;16.95;10.63;;;;;;;;;;5051260;28;20049;-79
2023/04/18 01:38:58;;;;;;;18.92;11.20;;;;;;;;;;5051094;28;20108;-79
2023/04/18 01:41:26;;;;;;;15.82;11.10;;;;;;;;;;5051208;28;20063;-79
2023/04/18 01:43:52;;;;;;;20.02;11.73;;;;;;;;;;5034827;28;20072;-79
2023/04/18 01:46:18;;;;;;;18.35;11.45;;;;;;;;;;5051309;28;20075;-78
2023/04/18 01:48:44;;;;;;;19.75;11.50;;;;;;;;;;5051224;28;20044;-78
2023/04/18 01:51:10;;;;;;;21.30;11.35;;;;;;;;;;5049163;28;20036;-79
2023/04/18 01:53:36;;;;;;;19.48;12.40;;;;;;;;;;5051196;28;20045;-78
2023/04/18 01:56:02;;;;;;;19.80;12.18;;;;;;;;;;5050712;28;20085;-79
2023/04/18 01:58:28;;;;;;;18.85;11.55;;;;;;;;;;5052232;28;20041;-78
2023/04/18 02:00:56;;;;;;;18.02;12.20;;;;;;;;;;5047426;28;20076;-79
2023/04/18 02:03:22;;;;;;;17.05;10.65;;;;;;;;;;5050793;28;20048;-78
2023/04/18 02:05:49;;;;;;;21.25;11.45;;;;;;;;;;5049906;28;20367;-79
2023/04/18 02:08:15;;;;;;;19.73;11.93;;;;;;;;;;5050488;28;20052;-79
2023/04/18 02:10:41;;;;;;;22.00;11.65;;;;;;;;;;5051401;28;20123;-79
2023/04/18 02:13:07;;;;;;;18.90;11.35;;;;;;;;;;5052426;28;20090;-79
2023/04/18 02:15:33;;;;;;;19.92;11.05;;;;;;;;;;5051295;28;20053;-79
2023/04/18 02:18:00;;;;;;;21.40;11.48;;;;;;;;;;5053332;28;20118;-78
2023/04/18 02:20:27;;;;;;;18.60;11.75;;;;;;;;;;5050693;28;20044;-78
2023/04/18 02:22:54;;;;;;;19.50;11.35;;;;;;;;;;5050878;28;20045;-78
2023/04/18 02:25:22;;;;;;;18.65;11.07;;;;;;;;;;5050509;28;20044;-78
2023/04/18 02:27:48;;;;;;;19.55;10.50;;;;;;;;;;5050843;28;20840;-79
2023/04/18 02:30:14;;;;;;;16.65;10.73;;;;;;;;;;5051885;28;20083;-78
2023/04/18 02:32:40;;;;;;;18.27;10.27;;;;;;;;;;5051173;28;20052;-78
2023/04/18 02:35:07;;;;;;;18.05;10.43;;;;;;;;;;5052460;28;20040;-78
2023/04/18 02:37:33;;;;;;;17.65;10.40;;;;;;;;;;5052269;28;20049;-78
2023/04/18 02:39:59;;;;;;;18.27;10.38;;;;;;;;;;5052277;28;20044;-78
2023/04/18 02:42:25;;;;;;;17.40;10.13;;;;;;;;;;5052802;28;20504;-79
2023/04/18 02:44:51;;;;;;;19.38;10.43;;;;;;;;;;5039770;28;20501;-78
2023/04/18 02:47:17;;;;;;;16.08;10.35;;;;;;;;;;5052782;28;20043;-78
2023/04/18 02:49:43;;;;;;;14.98;9.27;;;;;;;;;;5051870;28;20041;-78
2023/04/18 02:52:09;;;;;;;15.52;9.73;;;;;;;;;;5056009;28;20045;-78
2023/04/18 02:54:35;;;;;;;17.85;10.50;;;;;;;;;;5052010;28;20049;-78
2023/04/18 02:57:02;;;;;;;16.27;9.88;;;;;;;;;;5052540;28;20068;-78
2023/04/18 02:59:28;;;;;;;17.20;10.18;;;;;;;;;;5050007;28;20045;-78
2023/04/18 03:01:54;;;;;;;17.23;9.95;;;;;;;;;;5047344;28;20616;-78
2023/04/18 03:04:20;;;;;;;17.90;10.70;;;;;;;;;;5051423;28;20045;-78
2023/04/18 03:06:47;;;;;;;16.55;10.50;;;;;;;;;;5050429;28;20091;-79
2023/04/18 03:09:13;;;;;;;18.60;10.73;;;;;;;;;;5051284;28;20033;-79
2023/04/18 03:11:39;;;;;;;17.92;10.27;;;;;;;;;;5051309;28;20049;-78
2023/04/18 03:14:05;;;;;;;21.52;10.80;;;;;;;;;;5050017;28;20049;-78
2023/04/18 03:16:31;;;;;;;19.33;10.77;;;;;;;;;;5033488;28;20052;-78
2023/04/18 03:18:57;;;;;;;16.50;10.30;;;;;;;;;;5053226;28;20060;-78
2023/04/18 03:21:24;;;;;;;19.10;10.48;;;;;;;;;;5036720;28;20049;-79
2023/04/18 03:23:51;;;;;;;19.85;11.25;;;;;;;;;;5055427;28;20095;-78
2023/04/18 03:26:18;;;;;;;18.40;11.48;;;;;;;;;;5053710;28;20103;-79
2023/04/18 03:28:44;;;;;;;19.50;12.05;;;;;;;;;;5037192;28;20044;-78
2023/04/18 03:31:10;;;;;;;18.33;10.43;;;;;;;;;;5053252;28;20132;-78
2023/04/18 03:33:38;;;;;;;18.17;10.75;;;;;;;;;;5055133;28;20040;-78
2023/04/18 03:36:04;;;;;;;18.55;11.07;;;;;;;;;;5053909;28;20045;-79
2023/04/18 03:38:30;;;;;;;18.23;10.40;;;;;;;;;;5053491;28;20060;-79
2023/04/18 03:40:57;;;;;;;18.77;10.88;;;;;;;;;;5054906;28;20128;-78
2023/04/18 03:43:23;;;;;;;16.75;10.45;;;;;;;;;;5053523;28;20096;-79
2023/04/18 03:45:49;;;;;;;18.80;10.73;;;;;;;;;;5053972;28;20102;-78
2023/04/18 03:48:15;;;;;;;17.60;10.32;;;;;;;;;;5053561;28;20045;-78
2023/04/18 03:50:41;;;;;;;16.17;10.40;;;;;;;;;;5054834;28;20091;-78
2023/04/18 03:53:07;;;;;;;16.92;10.45;;;;;;;;;;5055025;28;20596;-79
2023/04/18 03:55:33;;;;;;;18.27;10.07;;;;;;;;;;5054324;28;20029;-79
2023/04/18 03:57:59;;;;;;;17.23;10.38;;;;;;;;;;5055043;28;20052;-79
2023/04/18 04:00:26;;;;;;;16.98;9.88;;;;;;;;;;5052757;28;20120;-79
2023/04/18 04:02:52;;;;;;;16.58;9.60;;;;;;;;;;5043821;28;20044;-79
2023/04/18 04:05:18;;;;;;;18.05;10.98;;;;;;;;;;5058949;28;20036;-79
2023/04/18 04:07:44;;;;;;;17.25;10.32;;;;;;;;;;5061700;28;20049;-79
2023/04/18 04:10:10;;;;;;;17.80;10.35;;;;;;;;;;5053109;28;20106;-79
2023/04/18 04:12:36;;;;;;;14.93;9.43;;;;;;;;;;5053839;28;20037;-79
2023/04/18 04:15:02;;;;;;;17.02;9.73;;;;;;;;;;5055611;28;20553;-79
2023/04/18 04:17:28;;;;;;;18.83;9.38;;;;;;;;;;5052756;28;20044;-78
2023/04/18 04:19:54;;;;;;;15.23;9.43;;;;;;;;;;5054173;28;20053;-79
2023/04/18 04:22:20;;;;;;;15.90;10.05;;;;;;;;;;5052332;28;20053;-78
2023/04/18 04:24:46;;;;;;;15.85;9.63;;;;;;;;;;5054280;28;20037;-79
2023/04/18 04:27:13;;;;;;;15.13;9.32;;;;;;;;;;5040162;28;20036;-79
2023/04/18 04:29:40;;;;;;;16.83;8.85;;;;;;;;;;5052829;28;20044;-79
2023/04/18 04:32:06;;;;;;;15.45;9.35;;;;;;;;;;5054045;28;20124;-79
2023/04/18 04:34:35;;;;;;;17.55;9.48;;;;;;;;;;5052858;28;20405;-79
2023/04/18 04:37:02;;;;;;;15.43;9.30;;;;;;;;;;5052908;28;20401;-78
2023/04/18 04:39:28;;;;;;;18.45;10.15;;;;;;;;;;5053491;28;20513;-79
2023/04/18 04:41:55;;;;;;;16.58;9.00;;;;;;;;;;5054281;28;20083;-78
2023/04/18 04:44:24;;;;;;;14.15;7.13;;;;;;;;;;5053771;28;20107;-79
2023/04/18 04:46:51;;;;;;;15.98;9.85;;;;;;;;;;5052358;28;20052;-79
2023/04/18 04:49:17;;;;;;;16.77;9.27;;;;;;;;;;5053535;28;20112;-79
2023/04/18 04:51:43;;;;;;;17.70;9.18;;;;;;;;;;5053703;28;20045;-79
2023/04/18 04:54:09;;;;;;;16.45;9.13;;;;;;;;;;5053600;28;20147;-79
2023/04/18 04:56:35;;;;;;;17.20;9.60;;;;;;;;;;5052213;28;20053;-79
2023/04/18 04:59:01;;;;;;;14.82;8.93;;;;;;;;;;5052101;28;20083;-79
2023/04/18 05:01:27;;;;;;;16.85;9.30;;;;;;;;;;5043788;28;20045;-79
2023/04/18 05:03:53;;;;;;;17.35;9.38;;;;;;;;;;5052248;28;20125;-79
2023/04/18 05:06:21;;;;;;;17.48;9.00;;;;;;;;;;5052112;28;20124;-79
2023/04/18 05:08:48;;;;;;;14.45;8.35;;;;;;;;;;5053496;28;20144;-79
2023/04/18 05:11:14;;;;;;;17.98;9.00;;;;;;;;;;5053662;28;20045;-79
2023/04/18 05:13:40;;;;;;;13.90;8.15;;;;;;;;;;5053277;28;20045;-79
2023/04/18 05:16:06;;;;;;;16.13;8.70;;;;;;;;;;5052081;28;20040;-79
2023/04/18 05:18:33;;;;;;;17.67;9.55;;;;;;;;;;5053329;28;20049;-79
2023/04/18 05:20:59;;;;;;;17.15;9.63;;;;;;;;;;5052040;28;20095;-79
2023/04/18 05:23:25;;;;;;;13.20;8.45;;;;;;;;;;5051790;28;20045;-79
2023/04/18 05:25:51;;;;;;;14.50;8.40;;;;;;;;;;5053057;28;20078;-78
2023/04/18 05:28:18;;;;;;;15.73;8.65;;;;;;;;;;5052069;28;20386;-79
2023/04/18 05:30:44;;;;;;;13.60;8.50;;;;;;;;;;5051452;28;20040;-79
2023/04/18 05:33:10;;;;;;;14.50;7.65;;;;;;;;;;5051940;28;20040;-79
2023/04/18 05:35:36;;;;;;;20.60;8.90;;;;;;;;;;5052671;28;20043;-79
2023/04/18 05:38:02;;;;;;;14.77;8.32;;;;;;;;;;5052747;28;20041;-79
2023/04/18 05:40:29;;;;;;;13.82;8.10;;;;;;;;;;5051280;28;20098;-79
2023/04/18 05:42:55;;;;;;;14.90;8.52;;;;;;;;;;5052020;28;20045;-79
2023/04/18 05:45:21;;;;;;;16.15;9.02;;;;;;;;;;5051841;28;20119;-79
2023/04/18 05:47:47;;;;;;;15.40;8.50;;;;;;;;;;5051360;28;20049;-79
2023/04/18 05:50:13;;;;;;;13.93;8.13;;;;;;;;;;5052518;28;20076;-79
2023/04/18 05:52:39;;;;;;;14.18;8.30;;;;;;;;;;5051051;28;20072;-79
2023/04/18 05:55:06;;;;;;;14.07;7.78;;;;;;;;;;5051744;28;20386;-79
2023/04/18 05:57:32;;;;;;;14.60;8.50;;;;;;;;;;5050853;28;20044;-79
2023/04/18 05:59:58;;;;;;;12.90;8.13;;;;;;;;;;5051132;28;20059;-79
2023/04/18 06:02:24;;;;;;;13.55;8.35;;;;;;;;;;5042051;28;20077;-79
2023/04/18 06:04:50;;;;;;;13.68;8.27;;;;;;;;;;5052297;28;20037;-79
2023/04/18 06:07:17;;;;;;;14.10;8.63;;;;;;;;;;5052681;28;20060;-79
2023/04/18 06:09:43;;;;;;;13.75;8.45;;;;;;;;;;5051986;28;20120;-79
2023/04/18 06:12:09;;;;;;;16.20;8.50;;;;;;;;;;5051279;28;20045;-79
2023/04/18 06:14:35;;;;;;;13.30;8.18;;;;;;;;;;5051044;28;20045;-79
2023/04/18 06:17:01;;;;;;;13.60;7.82;;;;;;;;;;5050935;28;20052;-79
2023/04/18 06:19:27;;;;;;;12.70;8.15;;;;;;;;;;5050991;28;20076;-79
2023/04/18 06:21:53;;;;;;;14.32;8.15;;;;;;;;;;5051567;28;20064;-79
2023/04/18 06:24:20;;;;;;;11.45;6.78;;;;;;;;;;5051697;28;20116;-79
2023/04/18 06:26:46;;;;;;;12.98;7.80;;;;;;;;;;5035789;28;20478;-79
2023/04/18 06:29:12;;;;;;;14.35;7.72;;;;;;;;;;5052559;28;20466;-79
2023/04/18 06:31:44;;;;;;;15.70;8.32;;;;;;;;;;5051340;28;20132;-79
2023/04/18 06:34:10;;;;;;;14.23;8.30;;;;;;;;;;5084933;28;20413;-79
2023/04/18 06:36:36;;;;;;;13.23;8.05;;;;;;;;;;5051096;28;20452;-79
2023/04/18 06:39:02;;;;;;;13.48;8.15;;;;;;;;;;5052144;28;20398;-79
2023/04/18 06:41:28;;;;;;;12.85;8.00;;;;;;;;;;5051249;28;20053;-79
2023/04/18 06:43:54;;;;;;;15.82;8.65;;;;;;;;;;5052039;28;20037;-79
2023/04/18 06:46:20;;;;;;;13.18;7.85;;;;;;;;;;5050844;28;20086;-79
2023/04/18 06:48:46;;;;;;;12.40;7.20;;;;;;;;;;5050446;28;20045;-79
2023/04/18 06:51:13;;;;;;;14.80;8.20;;;;;;;;;;5051205;28;20044;-79
2023/04/18 06:53:39;;;;;;;13.82;7.30;;;;;;;;;;5054351;28;20090;-79
2023/04/18 06:56:05;;;;;;;12.00;8.13;;;;;;;;;;5056686;28;20120;-78
2023/04/18 06:58:31;;;;;;;14.88;8.20;;;;;;;;;;5058372;28;20116;-79
2023/04/18 07:00:57;;;;;;;14.65;8.27;;;;;;;;;;5045209;28;20041;-79
2023/04/18 07:03:23;;;;;;;13.30;8.63;;;;;;;;;;5049707;28;20052;-79
2023/04/18 07:05:49;;;;;;;16.80;8.45;;;;;;;;;;5039205;28;20041;-79
2023/04/18 07:08:16;;;;;;;11.88;7.97;;;;;;;;;;5056422;28;20037;-79
2023/04/18 07:10:42;;;;;;;13.25;8.25;;;;;;;;;;5054979;28;20076;-79
2023/04/18 07:13:08;;;;;;;13.77;7.05;;;;;;;;;;5054500;28;20041;-79
2023/04/18 07:15:35;;;;;;;12.75;8.63;;;;;;;;;;5056115;28;20040;-79
2023/04/18 07:18:01;;;;;;;12.90;8.30;;;;;;;;;;5055144;28;20063;-77
2023/04/18 07:20:27;;;;;;;15.32;8.60;;;;;;;;;;5054864;28;20460;-79
2023/04/18 07:22:53;;;;;;;15.77;8.80;;;;;;;;;;5053850;28;20040;-79
2023/04/18 07:25:19;;;;;;;15.05;8.30;;;;;;;;;;5055114;28;20041;-79
2023/04/18 07:27:46;;;;;;;12.90;8.48;;;;;;;;;;5054011;28;20052;-79
2023/04/18 07:30:12;;;;;;;13.63;8.90;;;;;;;;;;5055076;28;20045;-79
2023/04/18 07:32:38;;;;;;;14.02;8.85;;;;;;;;;;5053537;28;20040;-79
2023/04/18 07:35:04;;;;;;;14.25;8.65;;;;;;;;;;5070518;28;20048;-79
2023/04/18 07:37:31;;;;;;;11.90;7.88;;;;;;;;;;5055224;28;20087;-79
2023/04/18 07:39:58;;;;;;;11.73;7.15;;;;;;;;;;5054858;28;20041;-79
2023/04/18 07:42:24;;;;;;;11.05;7.25;;;;;;;;;;5054954;28;20049;-80
2023/04/18 07:44:56;;;;;;;8.38;4.93;;;;;;;;;;5054600;28;20102;-79
2023/04/18 07:47:22;;;;;;;12.00;7.38;;;;;;;;;;5053465;28;20114;-80
2023/04/18 07:49:48;;;;;;;11.90;7.70;;;;;;;;;;5053193;28;20073;-79
2023/04/18 07:52:14;;;;;;;12.60;7.30;;;;;;;;;;5053837;28;20049;-80
2023/04/18 07:54:40;;;;;;;14.32;7.65;;;;;;;;;;5054438;28;20079;-80
2023/04/18 07:57:06;;;;;;;12.10;7.53;;;;;;;;;;5053672;28;20053;-79
2023/04/18 07:59:32;;;;;;;16.23;7.18;;;;;;;;;;5053255;28;20044;-80
2023/04/18 08:01:58;;;;;;;11.07;7.43;;;;;;;;;;5044187;28;20044;-80
2023/04/18 08:04:24;;;;;;;10.05;6.35;;;;;;;;;;5046093;28;20048;-80
2023/04/18 08:06:50;;;;;;;11.82;7.45;;;;;;;;;;5053213;28;20068;-80
2023/04/18 08:09:18;;;;;;;13.25;7.65;;;;;;;;;;5053830;28;20040;-81
2023/04/18 08:11:44;;;;;;;11.43;6.95;;;;;;;;;;5052975;28;20154;-80
2023/04/18 08:14:10;;;;;;;9.85;6.80;;;;;;;;;;5053536;28;20543;-80
2023/04/18 08:16:36;;;;;;;9.38;6.50;;;;;;;;;;5036742;28;20049;-81
2023/04/18 08:19:02;;;;;;;9.75;6.53;;;;;;;;;;5052620;28;20102;-81
2023/04/18 08:21:28;;;;;;;8.88;6.30;;;;;;;;;;5054458;28;20052;-81
2023/04/18 08:23:54;;;;;;;9.38;6.05;;;;;;;;;;5052766;28;20051;-82
2023/04/18 08:26:21;;;;;;;7.90;5.82;;;;;;;;;;5053536;28;20029;-82
2023/04/18 08:28:47;;;;;;;8.18;5.90;;;;;;;;;;5053477;28;20118;-82
2023/04/18 08:31:15;;;;;;;10.77;6.00;;;;;;;;;;5053107;28;20029;-82
2023/04/18 08:33:41;;;;;;;11.07;6.15;;;;;;;;;;5053054;28;20045;-82
2023/04/18 08:36:07;;;;;;;10.43;6.05;;;;;;;;;;5052779;28;20041;-82
2023/04/18 08:38:33;;;;;;;9.48;5.78;;;;;;;;;;5053152;28;20516;-82
2023/04/18 08:40:59;;;;;;;11.32;6.15;;;;;;;;;;5054081;28;20444;-82
2023/04/18 08:43:25;;;;;;;7.82;4.95;;;;;;;;;;5054099;28;20126;-82
2023/04/18 08:45:57;;;;;;;9.63;6.07;;;;;;;;;;5053576;28;20175;-82
2023/04/18 08:48:23;;;;;;;8.10;5.97;;;;;;;;;;5035987;28;20041;-82
2023/04/18 08:50:50;;;;;;;10.02;5.35;;;;;;;;;;5052315;28;20037;-80
2023/04/18 08:53:16;;;;;;;9.75;6.15;;;;;;;;;;5053758;28;20041;-81
2023/04/18 08:55:43;;;;;;;9.45;6.18;;;;;;;;;;5052748;28;20076;-81
2023/04/18 08:58:11;;;;;;;8.57;5.85;;;;;;;;;;5053737;28;20055;-82
2023/04/18 09:00:37;;;;;;;8.27;5.72;;;;;;;;;;5050753;28;20041;-81
2023/04/18 09:03:03;;;;;;;8.90;5.90;;;;;;;;;;5044631;28;20044;-81
2023/04/18 09:05:29;;;;;;;9.95;5.70;;;;;;;;;;5036647;28;20047;-81
2023/04/18 09:07:56;;;;;;;8.25;6.35;;;;;;;;;;5053705;28;20037;-81
2023/04/18 09:10:28;;;;;;;9.75;6.20;;;;;;;;;;5052122;28;20041;-81
2023/04/18 09:12:55;;;;;;;9.02;6.57;;;;;;;;;;5053379;28;20051;-81
2023/04/18 09:15:23;;;;;;;11.40;6.72;;;;;;;;;;5051790;28;20094;-81
2023/04/18 09:17:51;;;;;;;11.07;6.47;;;;;;;;;;5035344;28;20061;-82
2023/04/18 09:20:36;;;;;;;7.93;6.28;;;;;;;;;;5052501;28;20074;-82
2023/04/18 09:23:13;;;;;;;9.82;6.43;;;;;;;;;;5041092;28;20045;-82
2023/04/18 09:25:46;;;;;;;7.10;5.30;;;;;;;;;;5054406;28;20075;-81
2023/04/18 09:28:27;;;;;;;9.00;6.72;;;;;;;;;;5054413;28;20036;-82
2023/04/18 09:30:54;;;;;;;9.52;6.68;;;;;;;;;;5052368;28;20040;-82
2023/04/18 09:33:27;;;;;;;9.77;6.72;;;;;;;;;;5052958;28;20045;-81
2023/04/18 09:35:53;;;;;;;9.50;6.70;;;;;;;;;;5052338;28;20544;-81
2023/04/18 09:38:19;;;;;;;8.90;6.60;;;;;;;;;;5086087;28;20033;-81
2023/04/18 09:40:45;;;;;;;5.60;3.95;;;;;;;;;;5052683;28;20045;-81
2023/04/18 09:43:18;;;;;;;6.88;5.00;;;;;;;;;;5069003;28;20033;-82
2023/04/18 09:45:47;;;;;;;7.90;5.70;;;;;;;;;;5035028;28;20044;-82
2023/04/18 09:48:13;;;;;;;7.97;4.75;;;;;;;;;;5034561;28;20083;-81
2023/04/18 09:50:39;;;;;;;6.53;5.10;;;;;;;;;;5051110;28;20041;-82
2023/04/18 09:53:07;;;;;;;8.10;4.90;;;;;;;;;;5050840;28;20044;-81
2023/04/18 09:55:34;;;;;;;7.20;4.32;;;;;;;;;;5052283;28;20037;-81
2023/04/18 09:58:00;;;;;;;7.15;5.40;;;;;;;;;;5052154;28;20385;-81
2023/04/18 10:00:28;;;;;;;6.38;4.55;;;;;;;;;;5050910;28;20430;-81
2023/04/18 10:02:57;;;;;;;6.68;4.70;;;;;;;;;;5045141;28;20063;-81
2023/04/18 10:05:41;;;;;;;5.68;2.92;;;;;;;;;;5034875;28;20095;-81
2023/04/18 10:08:08;;;;;;;6.72;4.00;;;;;;;;;;5035746;28;20049;-81
2023/04/18 10:10:35;;;;;;;7.10;4.10;;;;;;;;;;5051224;28;20404;-81
2023/04/18 10:13:02;;;;;;;5.60;4.30;;;;;;;;;;5050473;28;20049;-81
2023/04/18 10:15:29;;;;;;;5.68;3.70;;;;;;;;;;5052020;28;20044;-81
2023/04/18 10:17:56;;;;;;;6.05;4.40;;;;;;;;;;5051604;28;20064;-81
2023/04/18 10:20:24;;;;;;;5.85;3.72;;;;;;;;;;5050588;28;20171;-81
2023/04/18 10:22:50;;;;;;;6.90;4.32;;;;;;;;;;5051837;28;20095;-81
2023/04/18 10:25:35;;;;;;;6.57;4.78;;;;;;;;;;5050646;28;20512;-81
2023/04/18 10:28:02;;;;;;;7.15;5.10;;;;;;;;;;5054176;28;20033;-81
2023/04/18 10:30:40;;;;;;;6.78;5.07;;;;;;;;;;5054852;28;20123;-81
2023/04/18 10:33:31;;;;;;;7.70;5.10;;;;;;;;;;5054483;28;20111;-81
2023/04/18 10:36:00;;;;;;;7.18;5.22;;;;;;;;;;5085486;28;20536;-81
2023/04/18 10:38:27;;;;;;;8.23;5.43;;;;;;;;;;5054706;28;20123;-81
2023/04/18 10:41:11;;;;;;;6.43;5.00;;;;;;;;;;5071706;28;20452;-81
2023/04/18 10:43:56;;;;;;;6.30;4.68;;;;;;;;;;5056289;28;20075;-81
2023/04/18 10:46:22;;;;;;;7.25;5.47;;;;;;;;;;5054703;28;20041;-81
2023/04/18 10:49:08;;;;;;;7.15;5.40;;;;;;;;;;5054920;28;20449;-81
2023/04/18 10:51:34;;;;;;;6.53;5.03;;;;;;;;;;5055600;28;20041;-81
2023/04/18 10:54:00;;;;;;;7.95;5.40;;;;;;;;;;5055279;28;20049;-81
2023/04/18 10:56:27;;;;;;;6.95;5.22;;;;;;;;;;5055630;28;20044;-82
2023/04/18 10:58:53;;;;;;;7.55;5.90;;;;;;;;;;5037637;28;20111;-81
2023/04/18 11:01:25;;;;;;;7.13;5.35;;;;;;;;;;5062854;28;20041;-81
2023/04/18 11:03:52;;;;;;;7.32;5.40;;;;;;;;;;5086398;28;20120;-81
2023/04/18 11:06:18;;;;;;;6.97;5.63;;;;;;;;;;5055025;28;20048;-81
2023/04/18 11:08:44;;;;;;;8.15;5.57;;;;;;;;;;5055360;28;20051;-81
2023/04/18 11:11:10;;;;;;;8.25;5.38;;;;;;;;;;5054962;28;20047;-81
2023/04/18 11:13:36;;;;;;;7.63;5.07;;;;;;;;;;5055244;28;20115;-81
2023/04/18 11:16:03;;;;;;;7.22;5.82;;;;;;;;;;5054088;28;20054;-81
2023/04/18 11:18:41;;;;;;;9.02;6.05;;;;;;;;;;5055431;28;20099;-81
2023/04/18 11:21:07;;;;;;;7.72;5.78;;;;;;;;;;5053341;28;20120;-81
2023/04/18 11:23:33;;;;;;;8.18;5.72;;;;;;;;;;5055126;28;20378;-81
2023/04/18 11:25:59;;;;;;;9.73;6.07;;;;;;;;;;5053562;28;20041;-81
2023/04/18 11:28:26;;;;;;;7.70;5.80;;;;;;;;;;5053774;28;20486;-81
2023/04/18 11:30:56;;;;;;;9.20;6.43;;;;;;;;;;5053747;28;20470;-81
2023/04/18 11:33:26;;;;;;;8.10;6.03;;;;;;;;;;5053529;28;20041;-81
2023/04/18 11:35:57;;;;;;;9.32;6.60;;;;;;;;;;5054949;28;20041;-81
2023/04/18 11:38:27;;;;;;;9.90;5.70;;;;;;;;;;5053887;28;20098;-81
2023/04/18 11:40:53;;;;;;;9.27;5.95;;;;;;;;;;5053482;28;20037;-81
2023/04/18 11:43:21;;;;;;;8.38;5.72;;;;;;;;;;5054222;28;20041;-80
2023/04/18 11:45:59;;;;;;;9.10;5.88;;;;;;;;;;5054757;28;20408;-81
2023/04/18 11:48:35;;;;;;;8.63;5.78;;;;;;;;;;5053282;28;20041;-81
2023/04/18 11:51:01;;;;;;;;;;;;;;;;;;5054919;28;20066;-81
2023/04/18 11:53:34;;;;;;;7.82;5.20;;;;;;;;;;5054362;28;19924;-81
2023/04/18 11:56:02;;;;;;;7.25;5.45;;;;;;;;;;5053156;28;20072;-80
2023/04/18 11:58:35;;;;;;;6.57;4.22;;;;;;;;;;5052801;28;20183;-80
2023/04/18 12:01:21;;;;;;;8.95;4.93;;;;;;;;;;5047824;28;20041;-80
2023/04/18 12:04:06;;;;;;;7.97;6.30;;;;;;;;;;5034499;28;20068;-81
2023/04/18 12:06:49;;;;;;;12.73;5.88;;;;;;;;;;5053148;28;20037;-81
2023/04/18 12:09:16;;;;;;;9.40;5.45;;;;;;;;;;5052999;28;20041;-81
2023/04/18 12:11:42;;;;;;;8.55;5.95;;;;;;;;;;5054024;28;20041;-81
2023/04/18 12:14:20;;;;;;;8.30;5.32;;;;;;;;;;5053784;28;20084;-81
2023/04/18 12:16:48;;;;;;;7.38;5.60;;;;;;;;;;5052731;28;20072;-81
2023/04/18 12:19:14;;;;;;;8.48;6.18;;;;;;;;;;5052287;28;20463;-81
2023/04/18 12:21:59;;;;;;;10.38;5.93;;;;;;;;;;5054014;28;20563;-80
2023/04/18 12:24:27;;;;;;;10.90;6.20;;;;;;;;;;5066480;28;20033;-81
2023/04/18 12:26:54;;;;;;;7.80;6.05;;;;;;;;;;5053734;28;20047;-81
2023/04/18 12:29:20;;;;;;;9.18;6.55;;;;;;;;;;5053608;28;20048;-81
2023/04/18 12:31:46;;;;;;;8.40;6.15;;;;;;;;;;5053685;28;20087;-81
2023/04/18 12:34:12;;;;;;;12.93;5.93;;;;;;;;;;5052435;28;20124;-81
2023/04/18 12:36:39;;;;;;;8.55;6.38;;;;;;;;;;5036042;28;20041;-81
2023/04/18 12:39:05;;;;;;;10.57;6.90;;;;;;;;;;5053539;28;20037;-81
2023/04/18 12:41:31;;;;;;;10.13;6.82;;;;;;;;;;5051738;28;20049;-80
2023/04/18 12:43:57;;;;;;;12.90;7.88;;;;;;;;;;5053517;28;20048;-81
2023/04/18 12:46:23;;;;;;;9.75;6.97;;;;;;;;;;5053196;28;20120;-81
2023/04/18 12:48:49;;;;;;;10.90;7.38;;;;;;;;;;5052241;28;20045;-81
2023/04/18 12:51:15;;;;;;;11.10;7.15;;;;;;;;;;5050747;28;20146;-81
2023/04/18 12:53:41;;;;;;;9.63;6.55;;;;;;;;;;5052224;28;20076;-81
2023/04/18 12:56:07;;;;;;;9.90;6.50;;;;;;;;;;5051821;28;20049;-81
2023/04/18 12:58:33;;;;;;;15.27;8.27;;;;;;;;;;5051699;28;20041;-81
2023/04/18 13:00:59;;;;;;;15.00;8.63;;;;;;;;;;5046953;28;20049;-80
2023/04/18 13:03:25;;;;;;;10.07;7.40;;;;;;;;;;5030338;28;20512;-80
2023/04/18 13:05:52;;;;;;;10.10;7.53;;;;;;;;;;5068817;28;20041;-81
2023/04/18 13:08:18;;;;;;;14.15;7.75;;;;;;;;;;5052718;28;20103;-81
2023/04/18 13:10:46;;;;;;;13.07;7.70;;;;;;;;;;5053289;28;20033;-81
2023/04/18 13:13:12;;;;;;;12.80;7.95;;;;;;;;;;5052248;28;20045;-81
2023/04/18 13:15:38;;;;;;;13.48;7.70;;;;;;;;;;5053052;28;20489;-81
2023/04/18 13:18:08;;;;;;;11.73;7.85;;;;;;;;;;5035537;28;20045;-81
2023/04/18 13:20:35;;;;;;;13.75;7.78;;;;;;;;;;5051497;28;20464;-80
2023/04/18 13:23:04;;;;;;;10.65;7.82;;;;;;;;;;5051989;28;20436;-80
2023/04/18 13:25:30;;;;;;;11.43;8.25;;;;;;;;;;5052707;28;20116;-80
2023/04/18 13:27:57;;;;;;;11.10;7.93;;;;;;;;;;5052864;28;20033;-80
2023/04/18 13:30:23;;;;;;;10.85;7.15;;;;;;;;;;5051568;28;20040;-79
2023/04/18 13:32:49;;;;;;;10.02;7.22;;;;;;;;;;5052052;28;20044;-80
2023/04/18 13:35:15;;;;;;;9.18;7.07;;;;;;;;;;5052669;28;20045;-81
2023/04/18 13:37:41;;;;;;;11.85;7.53;;;;;;;;;;5051636;28;20048;-81
2023/04/18 13:40:08;;;;;;;11.50;7.43;;;;;;;;;;5035086;28;20051;-80
2023/04/18 13:42:35;;;;;;;10.63;7.80;;;;;;;;;;5034017;28;20110;-81
2023/04/18 13:45:02;;;;;;;10.73;7.78;;;;;;;;;;5034947;28;20036;-81
2023/04/18 13:47:28;;;;;;;9.82;7.65;;;;;;;;;;5050922;28;20052;-81
2023/04/18 13:49:55;;;;;;;12.10;7.60;;;;;;;;;;5051307;28;20505;-80
2023/04/18 13:52:21;;;;;;;15.95;8.07;;;;;;;;;;5052447;28;20040;-80
2023/04/18 13:54:48;;;;;;;12.60;8.05;;;;;;;;;;5052403;28;20045;-80
2023/04/18 13:57:14;;;;;;;11.82;7.85;;;;;;;;;;5052453;28;20041;-81
2023/04/18 13:59:40;;;;;;;11.38;8.07;;;;;;;;;;5050805;28;20037;-81
2023/04/18 14:02:07;;;;;;;10.52;8.05;;;;;;;;;;5040527;28;20045;-81
2023/04/18 14:04:33;;;;;;;12.48;8.18;;;;;;;;;;5050955;28;20456;-81
2023/04/18 14:07:00;;;;;;;10.50;8.10;;;;;;;;;;5051950;28;20115;-81
2023/04/18 14:09:26;;;;;;;12.95;7.93;;;;;;;;;;5050774;28;20052;-81
2023/04/18 14:11:52;;;;;;;14.30;8.00;;;;;;;;;;5052028;28;20037;-81
2023/04/18 14:14:18;;;;;;;10.70;7.15;;;;;;;;;;5050987;28;20040;-81
2023/04/18 14:16:44;;;;;;;9.82;6.50;;;;;;;;;;5051110;28;20489;-81
2023/04/18 14:19:11;;;;;;;10.35;7.03;;;;;;;;;;5051765;28;20493;-81
2023/04/18 14:21:37;;;;;;;12.00;7.10;;;;;;;;;;5067278;28;20052;-81
2023/04/18 14:24:04;;;;;;;9.50;6.88;;;;;;;;;;5050609;28;20048;-81
2023/04/18 14:26:30;;;;;;;9.00;6.82;;;;;;;;;;5050894;28;20106;-81
2023/04/18 14:28:56;;;;;;;9.50;7.00;;;;;;;;;;5050636;28;20063;-81
2023/04/18 14:31:23;;;;;;;9.57;6.38;;;;;;;;;;5050619;28;20040;-81